Champion, NE (69023)

12:49 AM MDT on July 25, 2014 (GMT -0600)
Imperial Municipal (KIML) Elev 3274 ft | 40.51 °N, 101.62 °W | Change Station

Current weather conditions updated 56 minutes ago

Partly Cloudy
Partly Cloudy
70 °F
Feels Like 70 °F
N
15
Wind Variable Wind from WSW
Gusts 22 mph

Today is forecast to be nearly the same temperature as yesterday.

Today
High -- | Low -- °F
--% Chance of Precip.
Yesterday
High -- | Low -- °F
Precip. -- in
5:37 AM 8:08 PM
Waning Crescent, 3% visible
Pressure 29.74 in
Visibility 10.0 miles
Clouds Clear
Dew Point 59 °F
Humidity 68%
Rainfall 0.00 in
Snow Depth Not available.
UV 0 out of 12
Pollen 7.20 out of 12
Air Quality Not available.
Flu Activity Not available.
METAR KIML 250553Z AUTO 25013G19KT 10SM CLR 21/15 A2988 RMK AO2 SLP071 60000 T02110150 10322 20211 55002

More Conditions Fewer Conditions

Pressure 29.74 in
Visibility 10.0 miles
Clouds Clear
Dew Point 59 °F
Humidity 68%
Rainfall 0.00 in
Snow Depth Not available.
UV 0 out of 12
Pollen 7.20 out of 12
Air Quality Not available.
Flu Activity Not available.
METAR KIML 250553Z AUTO 25013G19KT 10SM CLR 21/15 A2988 RMK AO2 SLP071 60000 T02110150 10322 20211 55002

More Conditions Fewer Conditions

10-Day Weather Forecast

Almanac

Astronomy

Jul. 25, 2014 Rise Set
Actual Time 5:37 AM MDT 8:08 PM MDT
Civil Twilight 5:06 AM MDT 8:39 PM MDT
Nautical Twilight 4:27 AM MDT 9:18 PM MDT
Astronomical Twilight 3:44 AM MDT 10:01 PM MDT
Moon 4:39 AM MDT 7:06 PM MDT
Length of Visible Light 15h 33m
Length of Day
14h 30m
Tomorrow will be 1m 48s shorter.
Waning Crescent, 3% of the Moon is Illuminated
Today
Waning Crescent
Jul 26
New
Aug 3
First Quarter
Aug 10
Full
Aug 17
Last Quarter

Today's Extremes

State Highs State Lows

Community

WunderPhotos

Upload Photos

1,737,265 photos uploaded!

Nearby

Snow Depth

Station Depth Elevation
No new snow has been reported.

Earthquake Activity

City Distance Mag. Time & Date
No recent earthquake activity has been reported nearby.
Minimum magnitude displayed is 2.5.

Coastal Water Temperatures

Place Temperature
No Stations Reporting

Nearby Weather Stations

Station Location Temp. Dew Point Humidity Wind Precip. Elev Updated Type
MesoWest JOHNSON FARM , Champion, NE 68 °F 61 °F 79% West  at  2 mph 0.00 in / hr 3340 ft 11:00 PM MDT MADIS

Show More Stations Show Fewer Stations